sensor_id;sensor_type;location;lat;lon;timestamp;P1;durP1;ratioP1;P2;durP2;ratioP2
9773;SDS011;4926;42.670;23.316;2024-02-26T00:01:55;28.98;;;12.57;;
9773;SDS011;4926;42.670;23.316;2024-02-26T00:04:21;23.70;;;12.55;;
9773;SDS011;4926;42.670;23.316;2024-02-26T00:06:47;23.85;;;12.57;;
9773;SDS011;4926;42.670;23.316;2024-02-26T00:09:15;28.90;;;13.43;;
9773;SDS011;4926;42.670;23.316;2024-02-26T00:11:41;23.67;;;12.30;;
9773;SDS011;4926;42.670;23.316;2024-02-26T00:14:06;22.10;;;12.40;;
9773;SDS011;4926;42.670;23.316;2024-02-26T00:16:32;20.40;;;11.68;;
9773;SDS011;4926;42.670;23.316;2024-02-26T00:18:57;27.40;;;12.45;;
9773;SDS011;4926;42.670;23.316;2024-02-26T00:21:23;23.02;;;12.98;;
9773;SDS011;4926;42.670;23.316;2024-02-26T00:23:54;26.52;;;13.27;;
9773;SDS011;4926;42.670;23.316;2024-02-26T00:26:20;28.50;;;14.27;;
9773;SDS011;4926;42.670;23.316;2024-02-26T00:28:45;23.40;;;13.23;;
9773;SDS011;4926;42.670;23.316;2024-02-26T00:31:11;28.27;;;12.90;;
9773;SDS011;4926;42.670;23.316;2024-02-26T00:33:36;25.98;;;13.48;;
9773;SDS011;4926;42.670;23.316;2024-02-26T00:36:03;25.58;;;13.50;;
9773;SDS011;4926;42.670;23.316;2024-02-26T00:38:28;26.60;;;13.40;;
9773;SDS011;4926;42.670;23.316;2024-02-26T00:40:57;25.33;;;13.52;;
9773;SDS011;4926;42.670;23.316;2024-02-26T00:43:22;23.05;;;12.13;;
9773;SDS011;4926;42.670;23.316;2024-02-26T00:45:48;32.17;;;13.63;;
9773;SDS011;4926;42.670;23.316;2024-02-26T00:48:14;26.65;;;13.73;;
9773;SDS011;4926;42.670;23.316;2024-02-26T00:50:39;25.05;;;13.30;;
9773;SDS011;4926;42.670;23.316;2024-02-26T00:53:05;22.60;;;12.55;;
9773;SDS011;4926;42.670;23.316;2024-02-26T00:55:31;24.52;;;13.65;;
9773;SDS011;4926;42.670;23.316;2024-02-26T00:57:56;27.75;;;13.15;;
9773;SDS011;4926;42.670;23.316;2024-02-26T01:00:22;22.70;;;12.52;;
9773;SDS011;4926;42.670;23.316;2024-02-26T01:02:47;23.70;;;13.23;;
9773;SDS011;4926;42.670;23.316;2024-02-26T01:05:13;23.30;;;13.13;;
9773;SDS011;4926;42.670;23.316;2024-02-26T01:07:39;25.92;;;13.57;;
9773;SDS011;4926;42.670;23.316;2024-02-26T01:10:05;25.42;;;14.30;;
9773;SDS011;4926;42.670;23.316;2024-02-26T01:12:35;27.02;;;14.30;;
9773;SDS011;4926;42.670;23.316;2024-02-26T01:15:01;26.42;;;14.27;;
9773;SDS011;4926;42.670;23.316;2024-02-26T01:17:28;30.27;;;15.75;;
9773;SDS011;4926;42.670;23.316;2024-02-26T01:19:53;29.83;;;15.48;;
9773;SDS011;4926;42.670;23.316;2024-02-26T01:22:19;31.25;;;15.55;;
9773;SDS011;4926;42.670;23.316;2024-02-26T01:24:45;28.90;;;14.95;;
9773;SDS011;4926;42.670;23.316;2024-02-26T01:27:10;30.88;;;15.10;;
9773;SDS011;4926;42.670;23.316;2024-02-26T01:29:36;28.83;;;14.85;;
9773;SDS011;4926;42.670;23.316;2024-02-26T01:32:01;27.90;;;14.85;;
9773;SDS011;4926;42.670;23.316;2024-02-26T01:34:27;30.92;;;15.52;;
9773;SDS011;4926;42.670;23.316;2024-02-26T01:36:53;28.88;;;15.75;;
9773;SDS011;4926;42.670;23.316;2024-02-26T01:39:18;27.60;;;15.10;;
9773;SDS011;4926;42.670;23.316;2024-02-26T01:41:44;30.45;;;15.38;;
9773;SDS011;4926;42.670;23.316;2024-02-26T01:44:11;29.98;;;15.55;;
9773;SDS011;4926;42.670;23.316;2024-02-26T01:46:38;26.60;;;15.13;;
9773;SDS011;4926;42.670;23.316;2024-02-26T01:49:03;35.78;;;14.93;;
9773;SDS011;4926;42.670;23.316;2024-02-26T01:51:29;27.58;;;14.13;;
9773;SDS011;4926;42.670;23.316;2024-02-26T01:54:02;27.63;;;14.00;;
9773;SDS011;4926;42.670;23.316;2024-02-26T01:56:29;25.52;;;14.20;;
9773;SDS011;4926;42.670;23.316;2024-02-26T02:01:25;24.25;;;13.55;;
9773;SDS011;4926;42.670;23.316;2024-02-26T02:03:53;28.77;;;14.18;;
9773;SDS011;4926;42.670;23.316;2024-02-26T02:06:21;24.98;;;13.48;;
9773;SDS011;4926;42.670;23.316;2024-02-26T02:08:46;24.80;;;12.57;;
9773;SDS011;4926;42.670;23.316;2024-02-26T02:11:12;27.65;;;13.32;;
9773;SDS011;4926;42.670;23.316;2024-02-26T02:13:39;28.33;;;12.57;;
9773;SDS011;4926;42.670;23.316;2024-02-26T02:16:05;24.90;;;12.60;;
9773;SDS011;4926;42.670;23.316;2024-02-26T02:18:31;22.80;;;12.90;;
9773;SDS011;4926;42.670;23.316;2024-02-26T02:20:56;19.08;;;11.18;;
9773;SDS011;4926;42.670;23.316;2024-02-26T02:25:50;21.90;;;11.88;;
9773;SDS011;4926;42.670;23.316;2024-02-26T02:28:15;26.17;;;11.52;;
9773;SDS011;4926;42.670;23.316;2024-02-26T02:30:44;17.58;;;10.75;;
9773;SDS011;4926;42.670;23.316;2024-02-26T02:33:10;20.27;;;11.20;;
9773;SDS011;4926;42.670;23.316;2024-02-26T02:35:37;19.42;;;11.13;;
9773;SDS011;4926;42.670;23.316;2024-02-26T02:38:06;18.77;;;11.15;;
9773;SDS011;4926;42.670;23.316;2024-02-26T02:40:31;16.95;;;10.13;;
9773;SDS011;4926;42.670;23.316;2024-02-26T02:42:57;15.18;;;10.15;;
9773;SDS011;4926;42.670;23.316;2024-02-26T02:45:22;20.08;;;10.98;;
9773;SDS011;4926;42.670;23.316;2024-02-26T02:47:48;21.60;;;11.10;;
9773;SDS011;4926;42.670;23.316;2024-02-26T02:50:13;20.23;;;10.35;;
9773;SDS011;4926;42.670;23.316;2024-02-26T02:52:39;20.77;;;11.18;;
9773;SDS011;4926;42.670;23.316;2024-02-26T02:55:04;15.20;;;10.25;;
9773;SDS011;4926;42.670;23.316;2024-02-26T02:57:30;17.10;;;9.93;;
9773;SDS011;4926;42.670;23.316;2024-02-26T02:59:56;18.02;;;10.18;;
9773;SDS011;4926;42.670;23.316;2024-02-26T03:02:24;17.10;;;9.43;;
9773;SDS011;4926;42.670;23.316;2024-02-26T03:04:50;16.98;;;10.10;;
9773;SDS011;4926;42.670;23.316;2024-02-26T03:07:16;19.70;;;10.43;;
9773;SDS011;4926;42.670;23.316;2024-02-26T03:09:41;20.08;;;10.55;;
9773;SDS011;4926;42.670;23.316;2024-02-26T03:12:07;20.30;;;11.02;;
9773;SDS011;4926;42.670;23.316;2024-02-26T03:14:32;19.70;;;11.18;;
9773;SDS011;4926;42.670;23.316;2024-02-26T03:16:58;13.93;;;10.38;;
9773;SDS011;4926;42.670;23.316;2024-02-26T03:19:23;21.60;;;11.38;;
9773;SDS011;4926;42.670;23.316;2024-02-26T03:21:49;20.38;;;10.75;;
9773;SDS011;4926;42.670;23.316;2024-02-26T03:24:14;18.00;;;10.75;;
9773;SDS011;4926;42.670;23.316;2024-02-26T03:26:40;16.20;;;10.55;;
9773;SDS011;4926;42.670;23.316;2024-02-26T03:29:05;18.83;;;10.90;;
9773;SDS011;4926;42.670;23.316;2024-02-26T03:31:34;25.55;;;11.98;;
9773;SDS011;4926;42.670;23.316;2024-02-26T03:33:59;18.23;;;10.88;;
9773;SDS011;4926;42.670;23.316;2024-02-26T03:36:25;17.05;;;10.73;;
9773;SDS011;4926;42.670;23.316;2024-02-26T03:38:50;17.10;;;11.05;;
9773;SDS011;4926;42.670;23.316;2024-02-26T03:41:16;19.80;;;10.18;;
9773;SDS011;4926;42.670;23.316;2024-02-26T03:43:44;21.15;;;12.40;;
9773;SDS011;4926;42.670;23.316;2024-02-26T03:46:10;23.88;;;11.38;;
9773;SDS011;4926;42.670;23.316;2024-02-26T03:48:40;27.23;;;11.77;;
9773;SDS011;4926;42.670;23.316;2024-02-26T03:51:06;24.40;;;11.90;;
9773;SDS011;4926;42.670;23.316;2024-02-26T03:53:34;22.95;;;11.50;;
9773;SDS011;4926;42.670;23.316;2024-02-26T03:56:13;22.20;;;11.95;;
9773;SDS011;4926;42.670;23.316;2024-02-26T03:58:44;20.63;;;13.00;;
9773;SDS011;4926;42.670;23.316;2024-02-26T04:01:10;21.33;;;12.23;;
9773;SDS011;4926;42.670;23.316;2024-02-26T04:03:35;24.67;;;12.77;;
9773;SDS011;4926;42.670;23.316;2024-02-26T04:06:01;25.25;;;12.77;;
9773;SDS011;4926;42.670;23.316;2024-02-26T04:08:28;26.35;;;14.18;;
9773;SDS011;4926;42.670;23.316;2024-02-26T04:10:53;27.23;;;12.90;;
9773;SDS011;4926;42.670;23.316;2024-02-26T04:13:19;23.15;;;13.85;;
9773;SDS011;4926;42.670;23.316;2024-02-26T04:15:44;24.33;;;12.35;;
9773;SDS011;4926;42.670;23.316;2024-02-26T04:18:11;23.60;;;13.60;;
9773;SDS011;4926;42.670;23.316;2024-02-26T04:20:39;30.23;;;14.40;;
9773;SDS011;4926;42.670;23.316;2024-02-26T04:23:06;27.02;;;14.00;;
9773;SDS011;4926;42.670;23.316;2024-02-26T04:25:31;25.10;;;12.43;;
9773;SDS011;4926;42.670;23.316;2024-02-26T04:27:57;19.58;;;12.10;;
9773;SDS011;4926;42.670;23.316;2024-02-26T04:30:22;22.45;;;12.52;;
9773;SDS011;4926;42.670;23.316;2024-02-26T04:32:48;21.83;;;12.75;;
9773;SDS011;4926;42.670;23.316;2024-02-26T04:35:13;19.90;;;12.52;;
9773;SDS011;4926;42.670;23.316;2024-02-26T04:37:39;26.67;;;13.05;;
9773;SDS011;4926;42.670;23.316;2024-02-26T04:40:04;25.08;;;13.50;;
9773;SDS011;4926;42.670;23.316;2024-02-26T04:42:31;24.92;;;13.18;;
9773;SDS011;4926;42.670;23.316;2024-02-26T04:44:56;24.50;;;13.18;;
9773;SDS011;4926;42.670;23.316;2024-02-26T04:47:23;23.75;;;13.60;;
9773;SDS011;4926;42.670;23.316;2024-02-26T04:49:51;30.02;;;13.70;;
9773;SDS011;4926;42.670;23.316;2024-02-26T04:52:18;26.38;;;12.88;;
9773;SDS011;4926;42.670;23.316;2024-02-26T04:54:44;23.73;;;13.18;;
9773;SDS011;4926;42.670;23.316;2024-02-26T04:57:09;27.77;;;14.05;;
9773;SDS011;4926;42.670;23.316;2024-02-26T04:59:35;27.45;;;13.88;;
9773;SDS011;4926;42.670;23.316;2024-02-26T05:02:00;28.05;;;14.05;;
9773;SDS011;4926;42.670;23.316;2024-02-26T05:04:26;28.85;;;14.57;;
9773;SDS011;4926;42.670;23.316;2024-02-26T05:06:51;23.48;;;14.38;;
9773;SDS011;4926;42.670;23.316;2024-02-26T05:09:18;28.48;;;15.07;;
9773;SDS011;4926;42.670;23.316;2024-02-26T05:11:43;26.08;;;15.82;;
9773;SDS011;4926;42.670;23.316;2024-02-26T05:14:12;32.60;;;16.90;;
9773;SDS011;4926;42.670;23.316;2024-02-26T05:16:37;27.88;;;15.07;;
9773;SDS011;4926;42.670;23.316;2024-02-26T05:19:04;35.35;;;16.40;;
9773;SDS011;4926;42.670;23.316;2024-02-26T05:21:31;30.00;;;17.10;;
9773;SDS011;4926;42.670;23.316;2024-02-26T05:23:56;28.25;;;15.20;;
9773;SDS011;4926;42.670;23.316;2024-02-26T05:26:22;24.92;;;14.85;;
9773;SDS011;4926;42.670;23.316;2024-02-26T05:28:48;30.95;;;16.83;;
9773;SDS011;4926;42.670;23.316;2024-02-26T05:31:14;24.90;;;15.70;;
9773;SDS011;4926;42.670;23.316;2024-02-26T05:33:41;30.90;;;14.85;;
9773;SDS011;4926;42.670;23.316;2024-02-26T05:36:07;27.38;;;15.63;;
9773;SDS011;4926;42.670;23.316;2024-02-26T05:38:33;32.10;;;15.30;;
9773;SDS011;4926;42.670;23.316;2024-02-26T05:40:58;27.33;;;15.25;;
9773;SDS011;4926;42.670;23.316;2024-02-26T05:43:24;31.85;;;15.35;;
9773;SDS011;4926;42.670;23.316;2024-02-26T05:45:53;24.33;;;14.40;;
9773;SDS011;4926;42.670;23.316;2024-02-26T05:48:19;28.02;;;15.75;;
9773;SDS011;4926;42.670;23.316;2024-02-26T05:50:47;29.55;;;16.20;;
9773;SDS011;4926;42.670;23.316;2024-02-26T05:53:13;25.73;;;14.48;;
9773;SDS011;4926;42.670;23.316;2024-02-26T05:55:38;29.45;;;15.10;;
9773;SDS011;4926;42.670;23.316;2024-02-26T05:58:04;30.25;;;15.35;;
9773;SDS011;4926;42.670;23.316;2024-02-26T06:00:30;23.92;;;13.73;;
9773;SDS011;4926;42.670;23.316;2024-02-26T06:02:55;31.50;;;16.23;;
9773;SDS011;4926;42.670;23.316;2024-02-26T06:05:21;27.27;;;16.75;;
9773;SDS011;4926;42.670;23.316;2024-02-26T06:07:46;27.35;;;15.38;;
9773;SDS011;4926;42.670;23.316;2024-02-26T06:10:12;32.22;;;15.00;;
9773;SDS011;4926;42.670;23.316;2024-02-26T06:12:39;32.72;;;14.13;;
9773;SDS011;4926;42.670;23.316;2024-02-26T06:15:05;24.60;;;13.73;;
9773;SDS011;4926;42.670;23.316;2024-02-26T06:17:31;30.10;;;14.27;;
9773;SDS011;4926;42.670;23.316;2024-02-26T06:19:57;26.70;;;15.25;;
9773;SDS011;4926;42.670;23.316;2024-02-26T06:22:24;34.70;;;15.55;;
9773;SDS011;4926;42.670;23.316;2024-02-26T06:24:50;28.90;;;13.45;;
9773;SDS011;4926;42.670;23.316;2024-02-26T06:27:15;17.92;;;10.13;;
9773;SDS011;4926;42.670;23.316;2024-02-26T06:29:40;22.20;;;10.75;;
9773;SDS011;4926;42.670;23.316;2024-02-26T06:32:06;25.90;;;10.98;;
9773;SDS011;4926;42.670;23.316;2024-02-26T06:34:35;33.47;;;11.60;;
9773;SDS011;4926;42.670;23.316;2024-02-26T06:37:00;25.58;;;11.35;;
9773;SDS011;4926;42.670;23.316;2024-02-26T06:39:26;20.73;;;11.10;;
9773;SDS011;4926;42.670;23.316;2024-02-26T06:41:51;17.58;;;10.00;;
9773;SDS011;4926;42.670;23.316;2024-02-26T06:44:23;18.88;;;10.18;;
9773;SDS011;4926;42.670;23.316;2024-02-26T06:46:48;18.67;;;9.27;;
9773;SDS011;4926;42.670;23.316;2024-02-26T06:49:14;14.77;;;9.45;;
9773;SDS011;4926;42.670;23.316;2024-02-26T06:51:39;17.65;;;9.00;;
9773;SDS011;4926;42.670;23.316;2024-02-26T06:54:05;23.63;;;10.27;;
9773;SDS011;4926;42.670;23.316;2024-02-26T06:56:35;32.42;;;10.38;;
9773;SDS011;4926;42.670;23.316;2024-02-26T06:59:04;20.92;;;10.45;;
9773;SDS011;4926;42.670;23.316;2024-02-26T07:01:29;19.20;;;10.55;;
9773;SDS011;4926;42.670;23.316;2024-02-26T07:03:55;19.20;;;10.48;;
9773;SDS011;4926;42.670;23.316;2024-02-26T07:06:21;17.27;;;10.90;;
9773;SDS011;4926;42.670;23.316;2024-02-26T07:08:46;22.23;;;10.93;;
9773;SDS011;4926;42.670;23.316;2024-02-26T07:11:12;22.30;;;11.82;;
9773;SDS011;4926;42.670;23.316;2024-02-26T07:13:37;25.73;;;11.25;;
9773;SDS011;4926;42.670;23.316;2024-02-26T07:16:03;22.00;;;11.65;;
9773;SDS011;4926;42.670;23.316;2024-02-26T07:18:29;21.42;;;10.75;;
9773;SDS011;4926;42.670;23.316;2024-02-26T07:20:55;17.73;;;11.13;;
9773;SDS011;4926;42.670;23.316;2024-02-26T07:23:22;19.00;;;11.70;;
9773;SDS011;4926;42.670;23.316;2024-02-26T07:25:47;20.35;;;12.48;;
9773;SDS011;4926;42.670;23.316;2024-02-26T07:28:14;21.35;;;11.48;;
9773;SDS011;4926;42.670;23.316;2024-02-26T07:30:40;22.08;;;11.35;;
9773;SDS011;4926;42.670;23.316;2024-02-26T07:33:06;26.35;;;12.02;;
9773;SDS011;4926;42.670;23.316;2024-02-26T07:35:33;38.08;;;13.38;;
9773;SDS011;4926;42.670;23.316;2024-02-26T07:38:04;24.40;;;12.65;;
9773;SDS011;4926;42.670;23.316;2024-02-26T07:40:30;22.95;;;11.90;;
9773;SDS011;4926;42.670;23.316;2024-02-26T07:42:55;31.75;;;13.88;;
9773;SDS011;4926;42.670;23.316;2024-02-26T07:45:21;25.25;;;11.70;;
9773;SDS011;4926;42.670;23.316;2024-02-26T07:47:47;26.38;;;12.68;;
9773;SDS011;4926;42.670;23.316;2024-02-26T07:50:13;36.17;;;14.80;;
9773;SDS011;4926;42.670;23.316;2024-02-26T07:52:39;58.25;;;14.88;;
9773;SDS011;4926;42.670;23.316;2024-02-26T07:55:06;21.23;;;11.27;;
9773;SDS011;4926;42.670;23.316;2024-02-26T07:57:32;23.73;;;11.50;;
9773;SDS011;4926;42.670;23.316;2024-02-26T08:00:01;18.88;;;11.10;;
9773;SDS011;4926;42.670;23.316;2024-02-26T08:02:32;33.90;;;13.10;;
9773;SDS011;4926;42.670;23.316;2024-02-26T08:04:59;22.95;;;9.40;;
9773;SDS011;4926;42.670;23.316;2024-02-26T08:07:24;18.10;;;9.77;;
9773;SDS011;4926;42.670;23.316;2024-02-26T08:09:50;15.50;;;9.30;;
9773;SDS011;4926;42.670;23.316;2024-02-26T08:12:15;23.40;;;9.98;;
9773;SDS011;4926;42.670;23.316;2024-02-26T08:14:45;16.35;;;9.27;;
9773;SDS011;4926;42.670;23.316;2024-02-26T08:17:10;31.35;;;10.93;;
9773;SDS011;4926;42.670;23.316;2024-02-26T08:19:36;26.30;;;10.07;;
9773;SDS011;4926;42.670;23.316;2024-02-26T08:22:02;17.60;;;9.63;;
9773;SDS011;4926;42.670;23.316;2024-02-26T08:24:27;26.02;;;10.73;;
9773;SDS011;4926;42.670;23.316;2024-02-26T08:26:53;15.32;;;9.27;;
9773;SDS011;4926;42.670;23.316;2024-02-26T08:29:19;16.30;;;8.10;;
9773;SDS011;4926;42.670;23.316;2024-02-26T08:31:44;11.50;;;7.57;;
9773;SDS011;4926;42.670;23.316;2024-02-26T08:34:10;10.15;;;7.57;;
9773;SDS011;4926;42.670;23.316;2024-02-26T08:36:35;14.32;;;7.65;;
9773;SDS011;4926;42.670;23.316;2024-02-26T08:39:02;8.40;;;5.43;;
9773;SDS011;4926;42.670;23.316;2024-02-26T08:41:28;9.77;;;6.20;;
9773;SDS011;4926;42.670;23.316;2024-02-26T08:43:54;14.18;;;6.43;;
9773;SDS011;4926;42.670;23.316;2024-02-26T08:46:20;18.42;;;6.28;;
9773;SDS011;4926;42.670;23.316;2024-02-26T08:48:45;11.48;;;6.30;;
9773;SDS011;4926;42.670;23.316;2024-02-26T08:51:11;9.48;;;6.90;;
9773;SDS011;4926;42.670;23.316;2024-02-26T08:53:36;14.77;;;6.95;;
9773;SDS011;4926;42.670;23.316;2024-02-26T08:56:02;9.52;;;6.93;;
9773;SDS011;4926;42.670;23.316;2024-02-26T08:58:28;8.23;;;6.32;;
9773;SDS011;4926;42.670;23.316;2024-02-26T09:00:54;10.57;;;6.18;;
9773;SDS011;4926;42.670;23.316;2024-02-26T09:03:20;8.40;;;5.72;;
9773;SDS011;4926;42.670;23.316;2024-02-26T09:05:45;13.73;;;6.70;;
9773;SDS011;4926;42.670;23.316;2024-02-26T09:08:11;6.72;;;5.45;;
9773;SDS011;4926;42.670;23.316;2024-02-26T09:10:38;11.50;;;5.60;;
9773;SDS011;4926;42.670;23.316;2024-02-26T09:13:04;15.93;;;5.97;;
9773;SDS011;4926;42.670;23.316;2024-02-26T09:15:30;6.75;;;4.97;;
9773;SDS011;4926;42.670;23.316;2024-02-26T09:17:55;11.75;;;4.82;;
9773;SDS011;4926;42.670;23.316;2024-02-26T09:20:21;6.18;;;4.97;;
9773;SDS011;4926;42.670;23.316;2024-02-26T09:22:47;6.78;;;5.43;;
9773;SDS011;4926;42.670;23.316;2024-02-26T09:25:13;5.28;;;4.78;;
9773;SDS011;4926;42.670;23.316;2024-02-26T09:27:42;12.50;;;5.95;;
9773;SDS011;4926;42.670;23.316;2024-02-26T09:30:11;7.15;;;6.18;;
9773;SDS011;4926;42.670;23.316;2024-02-26T09:32:38;10.35;;;7.45;;
9773;SDS011;4926;42.670;23.316;2024-02-26T09:35:05;31.30;;;8.13;;
9773;SDS011;4926;42.670;23.316;2024-02-26T09:37:31;20.02;;;7.03;;
9773;SDS011;4926;42.670;23.316;2024-02-26T09:39:57;21.02;;;6.88;;
9773;SDS011;4926;42.670;23.316;2024-02-26T09:42:25;6.88;;;4.80;;
9773;SDS011;4926;42.670;23.316;2024-02-26T09:44:51;6.05;;;3.72;;
9773;SDS011;4926;42.670;23.316;2024-02-26T09:47:20;7.47;;;4.55;;
9773;SDS011;4926;42.670;23.316;2024-02-26T09:52:14;5.60;;;3.67;;
9773;SDS011;4926;42.670;23.316;2024-02-26T09:54:41;4.13;;;3.80;;
9773;SDS011;4926;42.670;23.316;2024-02-26T09:57:08;5.65;;;4.28;;
9773;SDS011;4926;42.670;23.316;2024-02-26T09:59:40;5.82;;;4.35;;
9773;SDS011;4926;42.670;23.316;2024-02-26T10:02:13;6.97;;;4.22;;
9773;SDS011;4926;42.670;23.316;2024-02-26T10:04:42;12.43;;;4.53;;
9773;SDS011;4926;42.670;23.316;2024-02-26T10:07:12;6.78;;;4.43;;
9773;SDS011;4926;42.670;23.316;2024-02-26T10:09:39;8.55;;;4.20;;
9773;SDS011;4926;42.670;23.316;2024-02-26T10:12:05;6.43;;;3.70;;
9773;SDS011;4926;42.670;23.316;2024-02-26T10:14:33;5.72;;;4.63;;
9773;SDS011;4926;42.670;23.316;2024-02-26T10:17:00;7.30;;;4.38;;
9773;SDS011;4926;42.670;23.316;2024-02-26T10:19:34;6.72;;;4.28;;
9773;SDS011;4926;42.670;23.316;2024-02-26T10:22:00;5.07;;;3.83;;
9773;SDS011;4926;42.670;23.316;2024-02-26T10:24:27;10.57;;;5.00;;
9773;SDS011;4926;42.670;23.316;2024-02-26T10:26:55;4.47;;;4.07;;
9773;SDS011;4926;42.670;23.316;2024-02-26T10:29:21;6.57;;;4.38;;
9773;SDS011;4926;42.670;23.316;2024-02-26T10:34:17;4.30;;;3.95;;
9773;SDS011;4926;42.670;23.316;2024-02-26T10:36:43;7.25;;;5.03;;
9773;SDS011;4926;42.670;23.316;2024-02-26T10:39:09;4.35;;;3.95;;
9773;SDS011;4926;42.670;23.316;2024-02-26T10:41:37;3.72;;;3.42;;
9773;SDS011;4926;42.670;23.316;2024-02-26T10:44:03;4.40;;;3.22;;
9773;SDS011;4926;42.670;23.316;2024-02-26T10:46:29;7.80;;;2.85;;
9773;SDS011;4926;42.670;23.316;2024-02-26T10:48:55;3.92;;;3.63;;
9773;SDS011;4926;42.670;23.316;2024-02-26T10:51:27;3.95;;;2.95;;
9773;SDS011;4926;42.670;23.316;2024-02-26T10:53:57;5.63;;;3.80;;
9773;SDS011;4926;42.670;23.316;2024-02-26T10:56:26;3.78;;;3.33;;
9773;SDS011;4926;42.670;23.316;2024-02-26T10:58:56;4.03;;;3.75;;
9773;SDS011;4926;42.670;23.316;2024-02-26T11:01:23;7.90;;;4.15;;
9773;SDS011;4926;42.670;23.316;2024-02-26T11:03:50;4.38;;;3.83;;
9773;SDS011;4926;42.670;23.316;2024-02-26T11:06:20;4.50;;;4.10;;
9773;SDS011;4926;42.670;23.316;2024-02-26T11:08:50;6.68;;;4.72;;
9773;SDS011;4926;42.670;23.316;2024-02-26T11:11:16;9.02;;;4.13;;
9773;SDS011;4926;42.670;23.316;2024-02-26T11:13:46;5.70;;;4.10;;
9773;SDS011;4926;42.670;23.316;2024-02-26T11:16:21;6.75;;;4.15;;
9773;SDS011;4926;42.670;23.316;2024-02-26T11:18:47;3.03;;;2.65;;
9773;SDS011;4926;42.670;23.316;2024-02-26T11:21:17;4.47;;;3.65;;
9773;SDS011;4926;42.670;23.316;2024-02-26T11:23:56;4.20;;;3.38;;
9773;SDS011;4926;42.670;23.316;2024-02-26T11:26:27;4.65;;;3.13;;
9773;SDS011;4926;42.670;23.316;2024-02-26T11:28:53;2.97;;;2.78;;
9773;SDS011;4926;42.670;23.316;2024-02-26T11:31:19;4.30;;;3.72;;
9773;SDS011;4926;42.670;23.316;2024-02-26T11:33:51;4.47;;;3.60;;
9773;SDS011;4926;42.670;23.316;2024-02-26T11:36:18;3.88;;;3.55;;
9773;SDS011;4926;42.670;23.316;2024-02-26T11:38:44;4.05;;;3.72;;
9773;SDS011;4926;42.670;23.316;2024-02-26T11:41:14;3.95;;;3.65;;
9773;SDS011;4926;42.670;23.316;2024-02-26T11:46:31;3.90;;;3.53;;
9773;SDS011;4926;42.670;23.316;2024-02-26T11:51:54;4.93;;;3.63;;
9773;SDS011;4926;42.670;23.316;2024-02-26T11:59:55;4.38;;;3.35;;
9773;SDS011;4926;42.670;23.316;2024-02-26T12:05:09;2.88;;;2.63;;
9773;SDS011;4926;42.670;23.316;2024-02-26T12:07:44;3.40;;;3.10;;
9773;SDS011;4926;42.670;23.316;2024-02-26T12:10:15;3.42;;;3.05;;
9773;SDS011;4926;42.670;23.316;2024-02-26T12:12:52;3.00;;;2.80;;
9773;SDS011;4926;42.670;23.316;2024-02-26T12:15:18;2.67;;;2.47;;
9773;SDS011;4926;42.670;23.316;2024-02-26T12:20:13;2.60;;;2.15;;
9773;SDS011;4926;42.670;23.316;2024-02-26T12:22:39;5.75;;;2.70;;
9773;SDS011;4926;42.670;23.316;2024-02-26T12:25:06;3.35;;;3.05;;
9773;SDS011;4926;42.670;23.316;2024-02-26T12:27:34;4.20;;;3.30;;
9773;SDS011;4926;42.670;23.316;2024-02-26T12:30:00;5.07;;;3.30;;
9773;SDS011;4926;42.670;23.316;2024-02-26T12:32:29;3.28;;;2.53;;
9773;SDS011;4926;42.670;23.316;2024-02-26T12:34:56;2.38;;;2.22;;
9773;SDS011;4926;42.670;23.316;2024-02-26T12:37:22;5.47;;;3.10;;
9773;SDS011;4926;42.670;23.316;2024-02-26T12:39:47;4.05;;;3.15;;
9773;SDS011;4926;42.670;23.316;2024-02-26T12:42:13;3.72;;;3.03;;
9773;SDS011;4926;42.670;23.316;2024-02-26T12:44:42;12.45;;;5.57;;
9773;SDS011;4926;42.670;23.316;2024-02-26T12:47:12;2.85;;;2.63;;
9773;SDS011;4926;42.670;23.316;2024-02-26T12:49:48;5.85;;;3.00;;
9773;SDS011;4926;42.670;23.316;2024-02-26T12:52:14;4.35;;;3.17;;
9773;SDS011;4926;42.670;23.316;2024-02-26T12:54:41;3.13;;;2.88;;
9773;SDS011;4926;42.670;23.316;2024-02-26T12:57:10;3.97;;;3.55;;
9773;SDS011;4926;42.670;23.316;2024-02-26T12:59:36;3.60;;;2.83;;
9773;SDS011;4926;42.670;23.316;2024-02-26T13:02:02;4.82;;;3.08;;
9773;SDS011;4926;42.670;23.316;2024-02-26T13:04:29;4.88;;;2.95;;
9773;SDS011;4926;42.670;23.316;2024-02-26T13:06:55;4.70;;;3.28;;
9773;SDS011;4926;42.670;23.316;2024-02-26T13:09:25;3.97;;;3.53;;
9773;SDS011;4926;42.670;23.316;2024-02-26T13:11:55;7.82;;;3.33;;
9773;SDS011;4926;42.670;23.316;2024-02-26T13:14:21;3.33;;;3.08;;
9773;SDS011;4926;42.670;23.316;2024-02-26T13:16:56;4.28;;;3.17;;
9773;SDS011;4926;42.670;23.316;2024-02-26T13:19:22;3.15;;;2.95;;
9773;SDS011;4926;42.670;23.316;2024-02-26T13:22:03;4.45;;;3.38;;
9773;SDS011;4926;42.670;23.316;2024-02-26T13:24:34;4.10;;;2.75;;
9773;SDS011;4926;42.670;23.316;2024-02-26T13:27:06;2.78;;;2.58;;
9773;SDS011;4926;42.670;23.316;2024-02-26T13:29:32;3.00;;;2.80;;
9773;SDS011;4926;42.670;23.316;2024-02-26T13:32:00;3.15;;;2.95;;
9773;SDS011;4926;42.670;23.316;2024-02-26T13:34:26;5.68;;;2.88;;
9773;SDS011;4926;42.670;23.316;2024-02-26T13:36:53;6.97;;;3.03;;
9773;SDS011;4926;42.670;23.316;2024-02-26T13:39:26;3.78;;;2.97;;
9773;SDS011;4926;42.670;23.316;2024-02-26T13:41:52;5.70;;;2.90;;
9773;SDS011;4926;42.670;23.316;2024-02-26T13:44:21;4.75;;;3.50;;
9773;SDS011;4926;42.670;23.316;2024-02-26T13:46:47;3.08;;;2.80;;
9773;SDS011;4926;42.670;23.316;2024-02-26T13:49:14;3.30;;;3.10;;
9773;SDS011;4926;42.670;23.316;2024-02-26T13:51:40;3.75;;;2.78;;
9773;SDS011;4926;42.670;23.316;2024-02-26T13:54:06;4.13;;;2.60;;
9773;SDS011;4926;42.670;23.316;2024-02-26T13:56:32;5.78;;;2.65;;
9773;SDS011;4926;42.670;23.316;2024-02-26T13:58:58;2.60;;;2.45;;
9773;SDS011;4926;42.670;23.316;2024-02-26T14:01:24;4.10;;;2.85;;
9773;SDS011;4926;42.670;23.316;2024-02-26T14:03:50;7.93;;;3.17;;
9773;SDS011;4926;42.670;23.316;2024-02-26T14:06:16;2.95;;;2.75;;
9773;SDS011;4926;42.670;23.316;2024-02-26T14:08:41;4.15;;;3.42;;
9773;SDS011;4926;42.670;23.316;2024-02-26T14:11:07;3.13;;;2.80;;
9773;SDS011;4926;42.670;23.316;2024-02-26T14:13:32;3.22;;;2.90;;
9773;SDS011;4926;42.670;23.316;2024-02-26T14:15:58;4.32;;;2.63;;
9773;SDS011;4926;42.670;23.316;2024-02-26T14:18:23;6.60;;;2.63;;
9773;SDS011;4926;42.670;23.316;2024-02-26T14:20:52;3.08;;;2.88;;
9773;SDS011;4926;42.670;23.316;2024-02-26T14:23:18;7.20;;;3.20;;
9773;SDS011;4926;42.670;23.316;2024-02-26T14:25:46;3.33;;;2.97;;
9773;SDS011;4926;42.670;23.316;2024-02-26T14:28:14;3.83;;;2.50;;
9773;SDS011;4926;42.670;23.316;2024-02-26T14:30:40;2.63;;;2.42;;
9773;SDS011;4926;42.670;23.316;2024-02-26T14:33:09;4.80;;;4.38;;
9773;SDS011;4926;42.670;23.316;2024-02-26T14:35:34;3.47;;;2.78;;
9773;SDS011;4926;42.670;23.316;2024-02-26T14:38:00;3.20;;;2.30;;
9773;SDS011;4926;42.670;23.316;2024-02-26T14:40:26;3.05;;;2.70;;
9773;SDS011;4926;42.670;23.316;2024-02-26T14:42:52;2.60;;;2.50;;
9773;SDS011;4926;42.670;23.316;2024-02-26T14:45:22;5.53;;;2.72;;
9773;SDS011;4926;42.670;23.316;2024-02-26T14:47:48;5.88;;;2.72;;
9773;SDS011;4926;42.670;23.316;2024-02-26T14:50:13;7.25;;;2.63;;
9773;SDS011;4926;42.670;23.316;2024-02-26T14:52:39;5.68;;;2.78;;
9773;SDS011;4926;42.670;23.316;2024-02-26T14:55:04;2.95;;;2.65;;
9773;SDS011;4926;42.670;23.316;2024-02-26T14:57:30;3.50;;;2.60;;
9773;SDS011;4926;42.670;23.316;2024-02-26T14:59:56;6.47;;;3.17;;
9773;SDS011;4926;42.670;23.316;2024-02-26T15:02:24;3.65;;;2.67;;
9773;SDS011;4926;42.670;23.316;2024-02-26T15:04:50;6.32;;;2.28;;
9773;SDS011;4926;42.670;23.316;2024-02-26T15:07:15;4.40;;;2.78;;
9773;SDS011;4926;42.670;23.316;2024-02-26T15:09:41;2.95;;;2.42;;